createdAt,value
2018-04-19T00:00:41.883Z,101691
2018-04-19T00:03:08.095Z,101686
2018-04-19T00:05:34.288Z,101682
2018-04-19T00:08:00.477Z,101681
2018-04-19T00:10:26.689Z,101679
2018-04-19T00:12:52.900Z,101682
2018-04-19T00:15:19.089Z,101676
2018-04-19T00:17:45.289Z,101667
2018-04-19T00:20:11.493Z,101664
2018-04-19T00:22:37.690Z,101669
2018-04-19T00:25:03.872Z,101673
2018-04-19T00:27:30.082Z,101675
2018-04-19T00:29:56.282Z,101672
2018-04-19T00:32:22.460Z,101665
2018-04-19T00:34:48.676Z,101674
2018-04-19T00:37:14.885Z,101671
2018-04-19T00:39:41.120Z,101670
2018-04-19T00:42:07.332Z,101679
2018-04-19T00:44:34.274Z,101670
2018-04-19T00:47:00.456Z,101682
2018-04-19T00:49:27.401Z,101674
2018-04-19T00:51:54.350Z,101671
2018-04-19T00:54:21.345Z,101666
2018-04-19T00:56:47.516Z,101672
2018-04-19T00:59:14.445Z,101662
2018-04-19T01:01:40.684Z,101674
2018-04-19T01:04:06.899Z,101672
2018-04-19T01:06:33.086Z,101667
2018-04-19T01:08:59.272Z,101670
2018-04-19T01:11:25.468Z,101661
2018-04-19T01:13:51.665Z,101660
2018-04-19T01:16:17.845Z,101654
2018-04-19T01:18:44.068Z,101666
2018-04-19T01:21:10.264Z,101658
2018-04-19T01:23:36.469Z,101653
2018-04-19T01:26:02.685Z,101649
2018-04-19T01:28:29.625Z,101664
2018-04-19T01:30:56.555Z,101665
2018-04-19T01:33:22.735Z,101662
2018-04-19T01:38:58.380Z,101656
2018-04-19T01:41:25.188Z,101656
2018-04-19T01:43:51.269Z,101662
2018-04-19T01:46:17.343Z,101654
2018-04-19T01:48:43.434Z,101657
2018-04-19T01:51:09.508Z,101653
2018-04-19T01:53:36.315Z,101654
2018-04-19T01:56:02.392Z,101654
2018-04-19T01:58:28.459Z,101647
2018-04-19T02:00:54.535Z,101641
2018-04-19T02:03:21.339Z,101644
2018-04-19T02:05:48.154Z,101642
2018-04-19T02:08:14.223Z,101645
2018-04-19T02:10:40.289Z,101650
2018-04-19T02:13:06.359Z,101637
2018-04-19T02:15:32.428Z,101648
2018-04-19T02:17:58.500Z,101647
2018-04-19T02:20:24.568Z,101650
2018-04-19T02:22:51.372Z,101646
2018-04-19T02:25:17.448Z,101649
2018-04-19T02:27:43.519Z,101646
2018-04-19T02:30:09.589Z,101637
2018-04-19T02:32:36.405Z,101636
2018-04-19T02:35:02.479Z,101636
2018-04-19T02:37:28.544Z,101639
2018-04-19T02:39:54.613Z,101645
2018-04-19T02:42:20.680Z,101645
2018-04-19T02:44:46.759Z,101632
2018-04-19T02:47:12.831Z,101630
2018-04-19T02:49:38.916Z,101630
2018-04-19T02:52:04.992Z,101634
2018-04-19T02:54:31.099Z,101628
2018-04-19T02:56:57.173Z,101624
2018-04-19T02:59:23.984Z,101629
2018-04-19T03:01:50.064Z,101622
2018-04-19T03:04:16.129Z,101615
2018-04-19T03:06:42.200Z,101626
2018-04-19T03:09:08.275Z,101617
2018-04-19T03:11:34.347Z,101618
2018-04-19T03:14:01.156Z,101624
2018-04-19T03:16:27.239Z,101616
2018-04-19T03:18:53.303Z,101627
2018-04-19T03:21:19.377Z,101620
2018-04-19T03:23:45.443Z,101620
2018-04-19T03:26:11.521Z,101627
2018-04-19T03:28:37.592Z,101614
2018-04-19T03:31:03.669Z,101617
2018-04-19T03:33:29.757Z,101620
2018-04-19T03:35:55.831Z,101629
2018-04-19T03:38:21.910Z,101620
2018-04-19T03:40:47.993Z,101620
2018-04-19T03:43:14.072Z,101620
2018-04-19T03:45:40.131Z,101618
2018-04-19T03:48:06.202Z,101614
2018-04-19T03:50:32.272Z,101612
2018-04-19T03:52:58.351Z,101606
2018-04-19T03:55:24.422Z,101612
2018-04-19T03:57:50.507Z,101607
2018-04-19T04:00:16.588Z,101612
2018-04-19T04:02:42.655Z,101608
2018-04-19T04:05:08.720Z,101602
2018-04-19T04:07:35.528Z,101604
2018-04-19T04:10:01.605Z,101618
2018-04-19T04:12:27.677Z,101623
2018-04-19T04:14:53.743Z,101625
2018-04-19T04:17:38.448Z,101620
2018-04-19T04:26:22.988Z,101628
2018-04-19T04:28:49.791Z,101625
2018-04-19T04:31:15.871Z,101625
2018-04-19T04:33:41.944Z,101614
2018-04-19T04:36:08.052Z,101620
2018-04-19T04:38:34.132Z,101617
2018-04-19T04:41:00.944Z,101629
2018-04-19T04:43:27.018Z,101621
2018-04-19T04:45:53.084Z,101618
2018-04-19T04:48:19.168Z,101632
2018-04-19T04:50:45.243Z,101629
2018-04-19T04:53:11.315Z,101613
2018-04-19T04:55:37.383Z,101617
2018-04-19T04:58:03.482Z,101617
2018-04-19T05:00:29.556Z,101620
2018-04-19T05:02:55.628Z,101616
2018-04-19T05:05:21.720Z,101625
2018-04-19T05:07:48.548Z,101615
2018-04-19T05:10:14.644Z,101623
2018-04-19T05:12:40.728Z,101628
2018-04-19T05:15:07.544Z,101621
2018-04-19T05:17:33.617Z,101631
2018-04-19T05:19:59.700Z,101621
2018-04-19T05:22:25.768Z,101621
2018-04-19T05:24:59.981Z,101626
2018-04-19T05:27:26.059Z,101613
2018-04-19T05:29:52.163Z,101612
2018-04-19T05:32:18.231Z,101603
2018-04-19T05:34:45.044Z,101620
2018-04-19T05:37:11.133Z,101626
2018-04-19T05:39:37.188Z,101625
2018-04-19T05:42:03.256Z,101626
2018-04-19T05:44:29.323Z,101636
2018-04-19T05:46:55.405Z,101614
2018-04-19T05:49:22.224Z,101623
2018-04-19T05:51:48.299Z,101626
2018-04-19T05:54:14.367Z,101634
2018-04-19T05:56:40.452Z,101641
2018-04-19T05:59:06.523Z,101652
2018-04-19T06:01:32.600Z,101651
2018-04-19T06:03:58.727Z,101651
2018-04-19T06:06:24.832Z,101655
2018-04-19T06:08:50.900Z,101661
2018-04-19T06:11:16.975Z,101662
2018-04-19T06:13:43.792Z,101663
2018-04-19T06:16:09.872Z,101663
2018-04-19T06:18:35.987Z,101667
2018-04-19T06:21:02.064Z,101679
2018-04-19T06:23:28.137Z,101674
2018-04-19T06:25:54.219Z,101674
2018-04-19T06:28:20.299Z,101676
2018-04-19T06:30:46.376Z,101679
2018-04-19T06:33:13.195Z,101678
2018-04-19T06:35:39.261Z,101681
2018-04-19T06:38:06.102Z,101674
2018-04-19T06:40:32.935Z,101679
2018-04-19T06:42:59.743Z,101681
2018-04-19T06:45:25.820Z,101687
2018-04-19T06:47:51.895Z,101682
2018-04-19T06:50:17.984Z,101689
2018-04-19T06:52:44.061Z,101683
2018-04-19T06:55:10.138Z,101681
2018-04-19T06:57:36.207Z,101687
2018-04-19T07:00:02.277Z,101679
2018-04-19T07:02:28.360Z,101682
2018-04-19T07:04:54.439Z,101680
2018-04-19T07:07:20.508Z,101675
2018-04-19T07:09:46.585Z,101681
2018-04-19T07:12:12.663Z,101682
2018-04-19T07:14:38.806Z,101685
2018-04-19T07:17:04.828Z,101679
2018-04-19T07:19:31.648Z,101677
2018-04-19T07:21:57.724Z,101670
2018-04-19T07:24:23.803Z,101667
2018-04-19T07:26:49.884Z,101670
2018-04-19T07:29:15.956Z,101672
2018-04-19T07:31:42.036Z,101674
2018-04-19T07:34:08.121Z,101671
2018-04-19T07:36:34.940Z,101674
2018-04-19T07:39:01.045Z,101684
2018-04-19T07:41:30.736Z,101683
2018-04-19T07:43:56.816Z,101679
2018-04-19T07:46:23.642Z,101684
2018-04-19T07:48:49.711Z,101682
2018-04-19T07:51:15.796Z,101684
2018-04-19T07:53:41.873Z,101684
2018-04-19T07:56:07.960Z,101682
2018-04-19T07:58:34.779Z,101680
2018-04-19T08:01:00.847Z,101691
2018-04-19T08:03:26.946Z,101688
2018-04-19T08:05:53.028Z,101697
2018-04-19T08:08:19.112Z,101690
2018-04-19T08:10:45.939Z,101693
2018-04-19T08:13:12.019Z,101694
2018-04-19T08:15:38.102Z,101694
2018-04-19T08:18:04.919Z,101693
2018-04-19T08:20:30.996Z,101689
2018-04-19T08:22:57.091Z,101702
2018-04-19T08:25:23.905Z,101696
2018-04-19T08:27:49.993Z,101689
2018-04-19T08:30:16.065Z,101700
2018-04-19T08:32:42.167Z,101698
2018-04-19T08:35:08.280Z,101694
2018-04-19T08:37:35.050Z,101693
2018-04-19T08:40:01.132Z,101695
2018-04-19T08:42:27.200Z,101696
2018-04-19T08:44:53.288Z,101694
2018-04-19T08:47:19.356Z,101693
2018-04-19T08:49:45.457Z,101703
2018-04-19T08:52:11.542Z,101696
2018-04-19T08:54:38.372Z,101698
2018-04-19T08:57:05.195Z,101696
2018-04-19T08:59:31.281Z,101694
2018-04-19T09:01:57.351Z,101694
2018-04-19T09:04:23.428Z,101693
2018-04-19T09:06:49.503Z,101688
2018-04-19T09:09:15.606Z,101692
2018-04-19T09:11:41.679Z,101686
2018-04-19T09:14:08.508Z,101687
2018-04-19T09:16:35.335Z,101689
2018-04-19T09:19:01.417Z,101691
2018-04-19T09:21:27.492Z,101690
2018-04-19T09:24:14.008Z,101690
2018-04-19T09:26:40.838Z,101696
2018-04-19T09:29:06.931Z,101696
2018-04-19T09:31:33.015Z,101704
2018-04-19T09:33:59.829Z,101700
2018-04-19T09:36:25.920Z,101699
2018-04-19T09:38:51.986Z,101696
2018-04-19T09:41:18.072Z,101695
2018-04-19T09:43:44.147Z,101689
2018-04-19T09:46:11.022Z,101694
2018-04-19T09:48:37.108Z,101691
2018-04-19T09:51:03.195Z,101695
2018-04-19T09:53:29.280Z,101693
2018-04-19T09:55:55.389Z,101689
2018-04-19T09:58:22.207Z,101689
2018-04-19T10:00:54.454Z,101686
2018-04-19T10:03:20.541Z,101686
2018-04-19T10:05:47.370Z,101686
2018-04-19T10:08:14.192Z,101682
2018-04-19T10:10:40.272Z,101679
2018-04-19T10:13:06.355Z,101675
2018-04-19T10:15:32.433Z,101675
2018-04-19T10:18:14.377Z,101678
2018-04-19T10:20:46.791Z,101671
2018-04-19T10:23:37.368Z,101672
2018-04-19T10:26:04.182Z,101675
2018-04-19T10:28:34.635Z,101671
2018-04-19T10:31:01.476Z,101669
2018-04-19T10:33:28.300Z,101668
2018-04-19T10:36:00.931Z,101670
2018-04-19T10:38:27.035Z,101666
2018-04-19T10:40:53.851Z,101661
2018-04-19T10:43:19.932Z,101663
2018-04-19T10:45:46.027Z,101663
2018-04-19T10:48:12.849Z,101658
2018-04-19T10:50:38.937Z,101655
2018-04-19T10:56:05.275Z,101656
2018-04-19T10:58:31.360Z,101655
2018-04-19T11:00:58.203Z,101649
2018-04-19T11:03:25.024Z,101640
2018-04-19T11:05:51.103Z,101639
2018-04-19T11:08:17.165Z,101648
2018-04-19T11:10:43.253Z,101643
2018-04-19T11:13:09.322Z,101644
2018-04-19T11:15:35.421Z,101641
2018-04-19T11:18:01.500Z,101635
2018-04-19T11:20:28.323Z,101643
2018-04-19T11:22:54.397Z,101642
2018-04-19T11:25:20.477Z,101633
2018-04-19T11:27:47.305Z,101635
2018-04-19T11:30:14.901Z,101627
2018-04-19T11:32:41.724Z,101624
2018-04-19T11:35:07.796Z,101618
2018-04-19T11:37:33.884Z,101616
2018-04-19T11:40:00.704Z,101614
2018-04-19T11:42:26.793Z,101605
2018-04-19T11:44:52.889Z,101617
2018-04-19T11:47:19.712Z,101606
2018-04-19T11:49:45.800Z,101608
2018-04-19T11:52:11.884Z,101603
2018-04-19T11:54:37.962Z,101589
2018-04-19T11:57:04.051Z,101584
2018-04-19T11:59:30.144Z,101594
2018-04-19T12:01:56.253Z,101584
2018-04-19T12:04:22.328Z,101588
2018-04-19T12:06:48.407Z,101574
2018-04-19T12:09:14.496Z,101572
2018-04-19T12:11:40.559Z,101576
2018-04-19T12:14:06.640Z,101570
2018-04-19T12:16:32.720Z,101567
2018-04-19T12:18:59.548Z,101564
2018-04-19T12:21:25.615Z,101571
2018-04-19T12:23:51.704Z,101566
2018-04-19T12:26:17.792Z,101566
2018-04-19T12:28:43.883Z,101559
2018-04-19T12:31:09.966Z,101561
2018-04-19T12:33:36.083Z,101567
2018-04-19T12:36:02.160Z,101561
2018-04-19T12:38:28.240Z,101558
2018-04-19T12:40:54.333Z,101563
2018-04-19T12:43:20.404Z,101561
2018-04-19T12:45:46.480Z,101554
2018-04-19T12:48:12.563Z,101552
2018-04-19T12:50:38.651Z,101554
2018-04-19T12:53:04.729Z,101540
2018-04-19T12:55:31.547Z,101544
2018-04-19T12:57:57.620Z,101548
2018-04-19T13:00:23.709Z,101546
2018-04-19T13:02:50.532Z,101546
2018-04-19T13:05:16.633Z,101538
2018-04-19T13:07:42.707Z,101531
2018-04-19T13:10:09.523Z,101539
2018-04-19T13:12:35.604Z,101527
2018-04-19T13:15:01.680Z,101522
2018-04-19T13:17:27.764Z,101522
2018-04-19T13:19:53.839Z,101515
2018-04-19T13:22:19.916Z,101517
2018-04-19T13:24:46.004Z,101514
2018-04-19T13:27:12.830Z,101503
2018-04-19T13:30:04.672Z,101506
2018-04-19T13:32:31.503Z,101499
2018-04-19T13:34:57.571Z,101504
2018-04-19T13:37:23.644Z,101499
2018-04-19T13:39:49.757Z,101497
2018-04-19T13:42:15.825Z,101500
2018-04-19T13:44:42.639Z,101494
2018-04-19T13:47:08.733Z,101498
2018-04-19T13:49:34.820Z,101497
2018-04-19T13:52:01.657Z,101498
2018-04-19T13:54:28.484Z,101497
2018-04-19T13:56:54.574Z,101494
2018-04-19T13:59:20.642Z,101492
2018-04-19T14:01:47.464Z,101480
2018-04-19T14:04:13.545Z,101490
2018-04-19T14:06:39.620Z,101480
2018-04-19T14:09:06.716Z,101485
2018-04-19T14:11:32.816Z,101471
2018-04-19T14:13:59.646Z,101469
2018-04-19T14:16:40.085Z,101474
2018-04-19T14:19:06.167Z,101465
2018-04-19T14:21:32.240Z,101463
2018-04-19T14:23:58.327Z,101460
2018-04-19T14:26:24.408Z,101454
2018-04-19T14:28:50.487Z,101459
2018-04-19T14:31:16.606Z,101457
2018-04-19T14:33:42.667Z,101455
2018-04-19T14:36:08.746Z,101456
2018-04-19T14:38:34.851Z,101458
2018-04-19T14:41:01.716Z,101449
2018-04-19T14:43:27.792Z,101454
2018-04-19T14:45:55.347Z,101446
2018-04-19T14:48:21.412Z,101453
2018-04-19T14:50:48.235Z,101447
2018-04-19T14:53:14.312Z,101451
2018-04-19T14:55:40.399Z,101445
2018-04-19T14:58:06.473Z,101452
2018-04-19T15:00:32.555Z,101446
2018-04-19T15:02:58.623Z,101446
2018-04-19T15:05:24.704Z,101445
2018-04-19T15:07:50.775Z,101448
2018-04-19T15:10:16.860Z,101432
2018-04-19T15:12:42.936Z,101443
2018-04-19T15:15:09.011Z,101443
2018-04-19T15:17:35.137Z,101439
2018-04-19T15:20:01.267Z,101439
2018-04-19T15:22:27.313Z,101432
2018-04-19T15:24:53.395Z,101432
2018-04-19T15:27:20.221Z,101427
2018-04-19T15:29:46.305Z,101445
2018-04-19T15:32:12.387Z,101433
2018-04-19T15:34:39.205Z,101437
2018-04-19T15:37:05.296Z,101424
2018-04-19T15:39:31.380Z,101426
2018-04-19T15:41:58.220Z,101432
2018-04-19T15:44:24.298Z,101418
2018-04-19T15:46:50.396Z,101425
2018-04-19T15:49:16.488Z,101429
2018-04-19T15:51:42.556Z,101426
2018-04-19T15:54:08.652Z,101420
2018-04-19T15:56:35.482Z,101422
2018-04-19T15:59:01.596Z,101421
2018-04-19T16:01:27.643Z,101416
2018-04-19T16:03:54.468Z,101414
2018-04-19T16:06:20.555Z,101418
2018-04-19T16:08:46.652Z,101414
2018-04-19T16:11:13.514Z,101414
2018-04-19T16:13:39.593Z,101407
2018-04-19T16:16:05.689Z,101405
2018-04-19T16:18:31.776Z,101410
2018-04-19T16:20:57.855Z,101409
2018-04-19T16:23:23.949Z,101403
2018-04-19T16:25:50.032Z,101409
2018-04-19T16:28:16.891Z,101410
2018-04-19T16:30:43.689Z,101402
2018-04-19T16:33:09.774Z,101394
2018-04-19T16:35:35.852Z,101393
2018-04-19T16:38:02.689Z,101400
2018-04-19T16:40:28.783Z,101395
2018-04-19T16:42:54.871Z,101395
2018-04-19T16:45:21.704Z,101390
2018-04-19T16:47:48.519Z,101389
2018-04-19T16:50:14.611Z,101392
2018-04-19T16:52:40.688Z,101394
2018-04-19T16:55:06.759Z,101386
2018-04-19T16:57:32.828Z,101387
2018-04-19T16:59:58.916Z,101383
2018-04-19T17:02:24.988Z,101382
2018-04-19T17:04:51.080Z,101391
2018-04-19T17:07:17.164Z,101388
2018-04-19T17:09:43.244Z,101382
2018-04-19T17:12:09.336Z,101378
2018-04-19T17:14:35.427Z,101383
2018-04-19T17:17:02.256Z,101386
2018-04-19T17:19:28.327Z,101381
2018-04-19T17:21:54.484Z,101375
2018-04-19T17:24:20.522Z,101378
2018-04-19T17:26:46.610Z,101382
2018-04-19T17:29:12.701Z,101378
2018-04-19T17:31:39.519Z,101377
2018-04-19T17:34:06.345Z,101374
2018-04-19T17:36:32.433Z,101378
2018-04-19T17:38:58.508Z,101383
2018-04-19T17:41:24.596Z,101380
2018-04-19T17:43:50.680Z,101380
2018-04-19T17:46:17.488Z,101375
2018-04-19T17:48:43.569Z,101382
2018-04-19T17:51:09.661Z,101378
2018-04-19T17:53:35.744Z,101379
2018-04-19T17:56:01.815Z,101378
2018-04-19T17:58:27.896Z,101381
2018-04-19T18:00:53.972Z,101380
2018-04-19T18:03:20.800Z,101378
2018-04-19T18:05:48.360Z,101378
2018-04-19T18:08:14.445Z,101380
2018-04-19T18:10:40.507Z,101386
2018-04-19T18:13:06.587Z,101380
2018-04-19T18:15:32.674Z,101381
2018-04-19T18:17:59.496Z,101382
2018-04-19T18:20:25.561Z,101391
2018-04-19T18:22:51.713Z,101389
2018-04-19T18:25:49.791Z,101384
2018-04-19T18:28:15.872Z,101386
2018-04-19T18:30:42.698Z,101392
2018-04-19T18:33:08.780Z,101391
2018-04-19T18:35:34.847Z,101391
2018-04-19T18:38:00.931Z,101392
2018-04-19T18:40:26.996Z,101406
2018-04-19T18:42:53.084Z,101391
2018-04-19T18:45:19.169Z,101388
2018-04-19T18:47:45.980Z,101392
2018-04-19T18:50:12.124Z,101388
2018-04-19T18:52:46.085Z,101389
2018-04-19T18:55:12.160Z,101399
2018-04-19T18:57:38.224Z,101403
2018-04-19T19:00:04.292Z,101401
2018-04-19T19:02:30.352Z,101408
2018-04-19T19:04:57.171Z,101402
2018-04-19T19:07:23.235Z,101394
2018-04-19T19:09:49.308Z,101402
2018-04-19T19:12:15.368Z,101398
2018-04-19T19:14:42.183Z,101407
2018-04-19T19:17:26.978Z,101400
2018-04-19T19:20:11.152Z,101395
2018-04-19T19:22:37.228Z,101405
2018-04-19T19:25:03.303Z,101404
2018-04-19T19:27:29.386Z,101394
2018-04-19T19:29:55.463Z,101409
2018-04-19T19:32:21.546Z,101415
2018-04-19T19:34:49.376Z,101408
2018-04-19T19:37:15.460Z,101412
2018-04-19T19:39:41.540Z,101406
2018-04-19T19:42:07.617Z,101407
2018-04-19T19:44:33.728Z,101414
2018-04-19T19:47:00.547Z,101410
2018-04-19T19:49:26.628Z,101405
2018-04-19T19:51:52.804Z,101400
2018-04-19T19:54:18.867Z,101401
2018-04-19T19:56:44.943Z,101407
2018-04-19T19:59:11.008Z,101394
2018-04-19T20:01:37.084Z,101397
2018-04-19T20:04:03.157Z,101390
2018-04-19T20:06:29.240Z,101398
2018-04-19T20:08:55.314Z,101396
2018-04-19T20:11:21.397Z,101384
2018-04-19T20:13:47.464Z,101388
2018-04-19T20:16:16.844Z,101388
2018-04-19T20:18:43.644Z,101395
2018-04-19T20:21:09.726Z,101383
2018-04-19T20:23:53.212Z,101386
2018-04-19T20:29:26.488Z,101390
2018-04-19T20:35:05.679Z,101378
2018-04-19T20:37:31.750Z,101379
2018-04-19T20:39:57.823Z,101379
2018-04-19T20:42:55.015Z,101374
2018-04-19T20:45:47.860Z,101376
2018-04-19T20:48:25.624Z,101379
2018-04-19T20:50:51.703Z,101372
2018-04-19T20:53:17.789Z,101365
2018-04-19T20:55:47.315Z,101374
2018-04-19T20:58:45.649Z,101372
2018-04-19T21:01:25.303Z,101376
2018-04-19T21:03:51.375Z,101374
2018-04-19T21:06:18.188Z,101374
2018-04-19T21:09:17.772Z,101375
2018-04-19T21:11:43.845Z,101376
2018-04-19T21:14:17.388Z,101363
2018-04-19T21:19:43.819Z,101375
2018-04-19T21:22:13.208Z,101366
2018-04-19T21:24:40.033Z,101368
2018-04-19T21:27:09.947Z,101364
2018-04-19T21:29:36.036Z,101368
2018-04-19T21:32:02.103Z,101363
2018-04-19T21:34:28.176Z,101369
2018-04-19T21:37:15.572Z,101361
2018-04-19T21:39:43.439Z,101363
2018-04-19T21:42:10.248Z,101358
2018-04-19T21:44:43.112Z,101362
2018-04-19T21:47:09.180Z,101355
2018-04-19T21:49:36.034Z,101355
2018-04-19T21:52:02.088Z,101366
2018-04-19T21:54:28.168Z,101357
2018-04-19T21:56:54.252Z,101351
2018-04-19T21:59:20.307Z,101363
2018-04-19T22:02:01.684Z,101358
2018-04-19T22:04:31.213Z,101349
2018-04-19T22:07:08.752Z,101349
2018-04-19T22:09:50.166Z,101351
2018-04-19T22:12:22.707Z,101341
2018-04-19T22:14:48.844Z,101347
2018-04-19T22:17:15.634Z,101342
2018-04-19T22:19:41.708Z,101346
2018-04-19T22:22:07.796Z,101328
2018-04-19T22:24:34.620Z,101339
2018-04-19T22:27:17.990Z,101345
2018-04-19T22:29:44.016Z,101339
2018-04-19T22:32:10.078Z,101336
2018-04-19T22:34:36.165Z,101337
2018-04-19T22:37:02.227Z,101332
2018-04-19T22:39:28.300Z,101331
2018-04-19T22:41:54.376Z,101332
2018-04-19T22:44:20.472Z,101323
2018-04-19T22:46:46.556Z,101330
2018-04-19T22:49:12.636Z,101320
2018-04-19T22:51:38.715Z,101314
2018-04-19T22:54:05.520Z,101316
2018-04-19T22:56:31.602Z,101321
2018-04-19T22:58:57.676Z,101316
2018-04-19T23:01:23.748Z,101315
2018-04-19T23:03:49.827Z,101315
2018-04-19T23:06:15.903Z,101307
2018-04-19T23:08:41.992Z,101306
2018-04-19T23:11:08.065Z,101310
2018-04-19T23:13:34.127Z,101303
2018-04-19T23:16:00.204Z,101299
2018-04-19T23:18:26.257Z,101304
2018-04-19T23:20:52.311Z,101306
2018-04-19T23:23:18.367Z,101299
2018-04-19T23:25:45.177Z,101306
2018-04-19T23:28:11.968Z,101300
2018-04-19T23:30:38.073Z,101291
2018-04-19T23:33:04.095Z,101294
2018-04-19T23:35:30.910Z,101292
2018-04-19T23:37:56.971Z,101292
2018-04-19T23:40:23.763Z,101299
2018-04-19T23:42:49.826Z,101293
2018-04-19T23:45:16.627Z,101293
2018-04-19T23:47:42.693Z,101285
2018-04-19T23:50:09.496Z,101291
2018-04-19T23:52:35.563Z,101283
2018-04-19T23:55:02.353Z,101289
2018-04-19T23:57:28.411Z,101291
2018-04-19T23:59:54.480Z,101296
